Airfield :







YOU CAN JOIN US ON...

 
LOGIN :

Register | Disclaimer

   EN    FR    IT 

 









Legend :    VFR   Marginal VFR   IFR   Intensive IFR   Very Intensive IFR
Visi :
Ceiling :
>= 8 km
>= 3000ft
5 to 8 km
1000 to 3000 ft
1500m to 5 km
500 to 1000 ft
800 to 1500m
200 to 500 ft
< 800m
< 200 ft
Symbols :   Thunderstorms  Fog  Heavy snow  Heavy precipitations  Wind > 20 kt






- Airport Elevation : 1188 ft


KCDA - Caledonia County

CURRENT METAR :
  • 260215Z AUTO 04008G17KT 360V070 10SM -RA OVC044 02/M01 A2983 RMK AO2 T00231010

EXPIRED METARs :
  • 260156Z AUTO 04006KT 7SM -RA BKN046 OVC060 02/M01 A2984 RMK AO2 T00221006
  • 260136Z AUTO 04010KT 10SM SCT048 OVC060 02/M01 A2985 RMK AO2 T00231008
  • 260116Z AUTO 06010G20KT 10SM SCT050 SCT060 OVC070 03/00 A2989 RMK AO2 T00301005
  • 260055Z AUTO 07009G15KT 10SM SCT075 BKN110 02/M01 A2991 RMK AO2 T00241007
  • 260035Z AUTO 07013KT 10SM CLR 02/M01 A2993 RMK AO2 T00201009
  • 260015Z AUTO 05009KT 10SM SCT023 SCT100 02/M01 A2993 RMK AO2 T00191010
  • 252355Z AUTO 05007KT 10SM CLR 02/M01 A2993 RMK AO2 T00211010 10033 20002
  • 252336Z AUTO 07010G16KT 10SM SCT060 SCT070 02/M01 A2993 RMK AO2 T00211010

TAF N/A



MET'MAP, your aeronautical weather chart ! - Copyright ORBIFLY December 2007 - Disclaimer

ORBIFLY MET'MAP TEAM :

Programming & Development : Alexandra Zaïnal
Concept & original design : Baudouin d'Aumeries
Assistance for programming : Marc-Olivier Méhu
Technical & hardware support : Manuel Goepfert

Contact : metmap@orbifly.com




SOURCES & CREDITS :

   NOAA